• Join FlightAware (Why Join?)
  • Login
  • US Flag 
11:56PM EDT


 

Airport Tracker/Info


-or-


 

Live Flight TrackerFlight Track Log ✈ PDT4226 ✈ 24-Jan-2014 ✈ KPHL - KBGM

Flight Track Log - Related Links

Times and Time Zones

All times are in EST time to prevent confusion due to time zone crossing. See the PDT4226 flight status page for this flight to view local times or setup timezone preferences in your user account.

Time Position Orientation Groundspeed Altitude Reporting Facility
EST Latitude Longitude Course Direction KTS MPH feet Rate Location/Type
11:55AM 39.9000 -75.2333 270° West 111 128 700  Level Philadelphia TRACON
11:56AM 39.9000 -75.2667 270° West 115 132 1,400 1,320 Climbing Philadelphia TRACON
11:57AM 39.9167 -75.3422 286° West 148 170 3,800 1,320 Climbing New York Center
11:58AM 39.9272 -75.3889 286° West 143 165 5,200 1,440 Climbing New York Center
11:59AM 39.9378 -75.4383 286° West 143 165 6,700 1,380 Climbing New York Center
12:00PM 39.9728 -75.4514 344° North 127 146 8,000 1,140 Climbing New York Center
12:01PM 40.0200 -75.4708 342° North 148 170 9,000 480 Climbing New York Center
12:02PM 40.0547 -75.4869 340° North 153 176 9,000  Level New York Center
12:03PM 40.0994 -75.5117 337° Northwest 153 176 9,000 60 Level New York Center
12:04PM 40.1383 -75.5306 340° North 153 176 9,200 600 Climbing New York Center
12:05PM 40.1833 -75.5500 342° North 153 176 10,300 840 Climbing New York Center
12:06PM 40.2267 -75.5667 344° North 168 193 10,900 720 Climbing New York Center
12:07PM 40.2642 -75.6153 315° West 163 188 11,800 480 Climbing New York Center
12:08PM 40.3131 -75.6406 338° Northwest 173 199 11,900  Climbing New York Center
12:09PM 40.3639 -75.6742 333° Northwest 198 228 11,900  Level New York Center
12:10PM 40.4147 -75.7022 337° Northwest 217 250 11,900  Level New York Center
12:11PM 40.4719 -75.7308 339° North 217 250 11,900  Level New York Center
12:12PM 40.5308 -75.7706 333° Northwest 217 250 11,900  Level New York Center
12:13PM 40.5897 -75.8022 338° Northwest 217 250 11,900  Level New York Center
12:14PM 40.6469 -75.8339 337° Northwest 217 250 11,900  Level New York Center
12:15PM 40.6953 -75.8675 332° Northwest 222 255 11,900  Level New York Center
12:16PM 40.7478 -75.9097 329° Northwest 217 250 11,900 -60 Level New York Center
12:17PM 40.8128 -75.9450 338° Northwest 217 250 11,800 -60 Descending New York Center
12:18PM 40.8675 -75.9819 333° Northwest 217 250 11,800  Level New York Center
12:19PM 40.9242 -76.0192 334° Northwest 217 250 11,800  Level New York Center
12:20PM 40.9792 -76.0508 337° Northwest 217 250 11,800  Level New York Center
12:21PM 41.0339 -76.0856 334° Northwest 217 250 11,800  Level New York Center
12:22PM 41.0903 -76.1231 333° Northwest 217 250 11,800  Level New York Center
12:23PM 41.1453 -76.1547 337° Northwest 217 250 11,800  Level New York Center
12:24PM 41.2019 -76.1897 335° Northwest 217 250 11,800 60 Level New York Center
12:25PM 41.2594 -76.2081 347° North 217 250 12,000 60 Climbing New York Center
12:26PM 41.3222 -76.1994 North 211 243 12,000  Level New York Center
12:27PM 41.3869 -76.1989 360° North 217 250 12,100  Climbing New York Center
12:28PM 41.4428 -76.2064 354° North 222 255 12,000 -60 Descending New York Center
12:29PM 41.5081 -76.1922 North 228 262 12,000 -300 Level New York Center
12:30PM 41.5731 -76.1808 North 228 262 11,500 -660 Descending New York Center
12:31PM 41.6439 -76.1811 360° North 241 277 10,700 -780 Descending New York Center
12:32PM 41.7128 -76.1811 360° North 241 277 10,000 -780 Descending New York Center
12:33PM 41.7817 -76.1756 North 246 283 9,200 -900 Descending New York Center
12:34PM 41.8531 -76.1647 North 251 289 8,300 -780 Descending New York Center
12:35PM 41.9203 -76.1506 North 251 289 7,700 -720 Descending New York Center
12:36PM 41.9844 -76.1111 25° Northeast 244 281 6,900 -960 Descending New York Center
12:37PM 42.0444 -76.0742 25° Northeast 244 281 5,800 -1,200 Descending New York Center
12:38PM 42.0867 -76.0131 47° Northeast 226 260 4,600 -1,080 Descending New York Center
12:39PM 42.1183 -75.9569 53° Northeast 203 234 3,700 -840 Descending New York Center
12:40PM 42.1583 -75.9433 14° North 178 205 3,000 -840 Descending New York Center
12:41PM 42.1908 -75.9628 336° Northwest 133 153 2,100 -900 Descending New York Center